OMD681 KGYR-KACY
Flight info
| Callsign | OMD681 |
|---|---|
| Flight time | N/A |
| Altitude | 39000 |
| Route | LALUZ6 ABQ J18 KENTO Q176 ROKNE J134 BUM J110 ZANDR Q430 AIR J110 VINSE Q430 BEETS J110 CYN |
| Aircraft | A321/M-SDE3FGHIRWY/LB1 |
Departure
| Time | 2026-05-05 23:55 |
|---|---|
| Airport | Phoenix Goodyear Airport (KGYR) |
Arrival
| Time | N/A |
|---|---|
| Airport | Atlantic City International Airport (KACY) |
| Time | Latitude | Longitude | Altitude | Speed | Heading |
|---|---|---|---|---|---|
| 2026-05-05 23:35 | 33.41638 | -112.37794 | 955 ft | 0 kts | 308° |
| 2026-05-05 23:50 | 33.41655 | -112.37818 | 953 ft | 8 kts | 310° |
| 2026-05-05 23:50 | 33.41717 | -112.37830 | 953 ft | 10 kts | 32° |
| 2026-05-05 23:50 | 33.41777 | -112.37817 | 952 ft | 10 kts | 328° |
| 2026-05-05 23:51 | 33.41842 | -112.37825 | 952 ft | 10 kts | 36° |
| 2026-05-05 23:51 | 33.41881 | -112.37786 | 956 ft | 12 kts | 38° |
| 2026-05-05 23:51 | 33.41959 | -112.37715 | 953 ft | 16 kts | 38° |
| 2026-05-05 23:51 | 33.42054 | -112.37626 | 958 ft | 18 kts | 38° |
| 2026-05-05 23:52 | 33.42157 | -112.37530 | 961 ft | 20 kts | 38° |
| 2026-05-05 23:52 | 33.42268 | -112.37422 | 964 ft | 20 kts | 33° |
| 2026-05-05 23:52 | 33.42382 | -112.37321 | 969 ft | 21 kts | 41° |
| 2026-05-05 23:52 | 33.42501 | -112.37208 | 979 ft | 23 kts | 37° |
| 2026-05-05 23:53 | 33.42633 | -112.37085 | 976 ft | 26 kts | 37° |
| 2026-05-05 23:53 | 33.42782 | -112.36945 | 980 ft | 28 kts | 37° |
| 2026-05-05 23:53 | 33.42945 | -112.36790 | 973 ft | 31 kts | 41° |
| 2026-05-05 23:53 | 33.43117 | -112.36633 | 986 ft | 31 kts | 37° |
| 2026-05-05 23:54 | 33.43232 | -112.36551 | 987 ft | 10 kts | 349° |
| 2026-05-05 23:54 | 33.43290 | -112.36594 | 987 ft | 10 kts | 291° |
| 2026-05-05 23:54 | 33.43264 | -112.36667 | 993 ft | 12 kts | 221° |
| 2026-05-05 23:54 | 33.43169 | -112.36754 | 981 ft | 37 kts | 217° |
| 2026-05-05 23:55 | 33.42680 | -112.37212 | 983 ft | 136 kts | 218° |
| 2026-05-05 23:55 | 33.41800 | -112.38045 | 1456 ft | 177 kts | 220° |
| 2026-05-05 23:55 | 33.40811 | -112.38930 | 2208 ft | 181 kts | 215° |
| 2026-05-05 23:55 | 33.39493 | -112.39142 | 2606 ft | 212 kts | 172° |
| 2026-05-05 23:56 | 33.38188 | -112.38175 | 3101 ft | 241 kts | 132° |
| 2026-05-05 23:56 | 33.37780 | -112.36139 | 3339 ft | 279 kts | 79° |
| 2026-05-05 23:56 | 33.38582 | -112.33990 | 4172 ft | 287 kts | 56° |
| 2026-05-05 23:56 | 33.39678 | -112.31972 | 5169 ft | 291 kts | 56° |
| 2026-05-05 23:57 | 33.40806 | -112.29910 | 6230 ft | 292 kts | 56° |
| 2026-05-05 23:57 | 33.41949 | -112.27837 | 6896 ft | 312 kts | 55° |
| 2026-05-05 23:57 | 33.43038 | -112.25470 | 7315 ft | 336 kts | 65° |
| 2026-05-05 23:57 | 33.43877 | -112.22804 | 8082 ft | 342 kts | 72° |
| 2026-05-05 23:58 | 33.44521 | -112.20163 | 9705 ft | 320 kts | 74° |
| 2026-05-05 23:58 | 33.45106 | -112.17580 | 11025 ft | 313 kts | 76° |
| 2026-05-05 23:58 | 33.45632 | -112.15004 | 11687 ft | 327 kts | 77° |
| 2026-05-05 23:58 | 33.46233 | -112.12280 | 12033 ft | 350 kts | 75° |
| 2026-05-05 23:59 | 33.46965 | -112.09399 | 12356 ft | 372 kts | 73° |
| 2026-05-05 23:59 | 33.47781 | -112.06407 | 13009 ft | 382 kts | 73° |
| 2026-05-05 23:59 | 33.48630 | -112.03365 | 13779 ft | 388 kts | 73° |
| 2026-05-05 23:59 | 33.49488 | -112.00281 | 14517 ft | 393 kts | 73° |
| 2026-05-06 00:00 | 33.50344 | -111.97148 | 15280 ft | 397 kts | 73° |
| 2026-05-06 00:00 | 33.51193 | -111.93977 | 16059 ft | 402 kts | 73° |
| 2026-05-06 00:00 | 33.52042 | -111.90771 | 16855 ft | 406 kts | 73° |
| 2026-05-06 00:00 | 33.52898 | -111.87530 | 17620 ft | 410 kts | 73° |
| 2026-05-06 00:01 | 33.53759 | -111.84257 | 18355 ft | 414 kts | 73° |
| 2026-05-06 00:01 | 33.54632 | -111.80935 | 18925 ft | 421 kts | 73° |
| 2026-05-06 00:01 | 33.55521 | -111.77554 | 19408 ft | 431 kts | 73° |
| 2026-05-06 00:01 | 33.56430 | -111.74082 | 19895 ft | 440 kts | 74° |
| 2026-05-06 00:02 | 33.57354 | -111.70553 | 20408 ft | 449 kts | 74° |
| 2026-05-06 00:02 | 33.58296 | -111.66953 | 20929 ft | 457 kts | 74° |
| 2026-05-06 00:02 | 33.59257 | -111.63278 | 21430 ft | 465 kts | 74° |
| 2026-05-06 00:02 | 33.60246 | -111.59496 | 21927 ft | 473 kts | 74° |
| 2026-05-06 00:03 | 33.61224 | -111.55750 | 22379 ft | 481 kts | 75° |
| 2026-05-06 00:03 | 33.62246 | -111.51836 | 22854 ft | 489 kts | 75° |
| 2026-05-06 00:03 | 33.63267 | -111.47920 | 23320 ft | 496 kts | 75° |
| 2026-05-06 00:03 | 33.64303 | -111.43943 | 23716 ft | 503 kts | 75° |
| 2026-05-06 00:04 | 33.65348 | -111.39916 | 24137 ft | 509 kts | 75° |
| 2026-05-06 00:04 | 33.66408 | -111.35827 | 24559 ft | 514 kts | 76° |
| 2026-05-06 00:04 | 33.67473 | -111.31711 | 24991 ft | 520 kts | 76° |
| 2026-05-06 00:04 | 33.68562 | -111.27551 | 25391 ft | 526 kts | 73° |
| 2026-05-06 00:05 | 33.71413 | -111.19338 | 26137 ft | 538 kts | 69° |
| 2026-05-06 00:05 | 33.72898 | -111.15192 | 26525 ft | 543 kts | 69° |
| 2026-05-06 00:05 | 33.74397 | -111.11000 | 26865 ft | 549 kts | 69° |
| 2026-05-06 00:06 | 33.75910 | -111.06763 | 27242 ft | 555 kts | 69° |
| 2026-05-06 00:06 | 33.77436 | -111.02482 | 27622 ft | 560 kts | 70° |
| 2026-05-06 00:06 | 33.78971 | -110.98156 | 28004 ft | 564 kts | 70° |
| 2026-05-06 00:06 | 33.80513 | -110.93799 | 28387 ft | 569 kts | 70° |
| 2026-05-06 00:07 | 33.82070 | -110.89402 | 28718 ft | 574 kts | 70° |
| 2026-05-06 00:07 | 33.83642 | -110.84967 | 28923 ft | 579 kts | 70° |
| 2026-05-06 00:07 | 33.85225 | -110.80499 | 29303 ft | 582 kts | 70° |
| 2026-05-06 00:07 | 33.86813 | -110.76002 | 29704 ft | 586 kts | 70° |
| 2026-05-06 00:08 | 33.88409 | -110.71466 | 30082 ft | 589 kts | 70° |
| 2026-05-06 00:08 | 33.90024 | -110.66865 | 30501 ft | 589 kts | 70° |
| 2026-05-06 00:08 | 33.91595 | -110.62384 | 30997 ft | 588 kts | 70° |
| 2026-05-06 00:08 | 33.93206 | -110.57793 | 31487 ft | 587 kts | 70° |
| 2026-05-06 00:09 | 33.94793 | -110.53277 | 31998 ft | 585 kts | 70° |
| 2026-05-06 00:09 | 33.96376 | -110.48775 | 32500 ft | 584 kts | 70° |
| 2026-05-06 00:09 | 33.97961 | -110.44268 | 32927 ft | 583 kts | 70° |
| 2026-05-06 00:09 | 33.99538 | -110.39765 | 33410 ft | 582 kts | 70° |
| 2026-05-06 00:10 | 34.01101 | -110.35280 | 33896 ft | 582 kts | 70° |
| 2026-05-06 00:10 | 34.02663 | -110.30780 | 34335 ft | 580 kts | 70° |
| 2026-05-06 00:10 | 34.04214 | -110.26308 | 34880 ft | 577 kts | 70° |
| 2026-05-06 00:10 | 34.05755 | -110.21865 | 35435 ft | 572 kts | 70° |
| 2026-05-06 00:11 | 34.07284 | -110.17446 | 35966 ft | 569 kts | 70° |
| 2026-05-06 00:11 | 34.08802 | -110.13058 | 36459 ft | 566 kts | 70° |
| 2026-05-06 00:11 | 34.10315 | -110.08682 | 36876 ft | 565 kts | 70° |
| 2026-05-06 00:11 | 34.11826 | -110.04307 | 37277 ft | 564 kts | 69° |
| 2026-05-06 00:12 | 34.13332 | -109.99942 | 37696 ft | 562 kts | 69° |
| 2026-05-06 00:12 | 34.14830 | -109.95590 | 38112 ft | 561 kts | 69° |
| 2026-05-06 00:12 | 34.16320 | -109.91251 | 38518 ft | 559 kts | 69° |
| 2026-05-06 00:12 | 34.17803 | -109.86925 | 38816 ft | 557 kts | 69° |
| 2026-05-06 00:13 | 34.19303 | -109.82551 | 38936 ft | 556 kts | 69° |
| 2026-05-06 00:13 | 34.22238 | -109.73978 | 38934 ft | 550 kts | 70° |
| 2026-05-06 00:14 | 34.25148 | -109.65448 | 38847 ft | 549 kts | 70° |
| 2026-05-06 00:14 | 34.28050 | -109.56909 | 38882 ft | 549 kts | 70° |
| 2026-05-06 00:15 | 34.30942 | -109.48372 | 38901 ft | 549 kts | 70° |
| 2026-05-06 00:15 | 34.33833 | -109.39831 | 38909 ft | 550 kts | 70° |
| 2026-05-06 00:16 | 34.36727 | -109.31241 | 38891 ft | 551 kts | 70° |
| 2026-05-06 00:16 | 34.39622 | -109.22644 | 38858 ft | 552 kts | 70° |
| 2026-05-06 00:17 | 34.42529 | -109.13965 | 38812 ft | 552 kts | 71° |
| 2026-05-06 00:17 | 34.45131 | -109.05226 | 38766 ft | 551 kts | 75° |
| 2026-05-06 00:18 | 34.47457 | -108.96388 | 38789 ft | 551 kts | 76° |
| 2026-05-06 00:18 | 34.49383 | -108.89026 | 38786 ft | 551 kts | 75° |
| 2026-05-06 00:19 | 34.51806 | -108.80131 | 38797 ft | 552 kts | 75° |
| 2026-05-06 00:19 | 34.54267 | -108.71303 | 38782 ft | 552 kts | 75° |
| 2026-05-06 00:20 | 34.56709 | -108.62472 | 38799 ft | 552 kts | 75° |
| 2026-05-06 00:20 | 34.59114 | -108.53622 | 38802 ft | 552 kts | 75° |
| 2026-05-06 00:21 | 34.61501 | -108.44762 | 38809 ft | 552 kts | 75° |
| 2026-05-06 00:21 | 34.63889 | -108.35912 | 38784 ft | 552 kts | 75° |
| 2026-05-06 00:22 | 34.66285 | -108.27046 | 38806 ft | 552 kts | 75° |
| 2026-05-06 00:22 | 34.68671 | -108.18178 | 38813 ft | 553 kts | 75° |
| 2026-05-06 00:23 | 34.71058 | -108.09288 | 38819 ft | 553 kts | 75° |
| 2026-05-06 00:23 | 34.73431 | -108.00398 | 38822 ft | 553 kts | 75° |
| 2026-05-06 00:24 | 34.75791 | -107.91504 | 38823 ft | 553 kts | 75° |
| 2026-05-06 00:24 | 34.78151 | -107.82592 | 38822 ft | 553 kts | 75° |
| 2026-05-06 00:25 | 34.80510 | -107.73687 | 38783 ft | 553 kts | 75° |
| 2026-05-06 00:25 | 34.82897 | -107.64651 | 38800 ft | 554 kts | 75° |
| 2026-05-06 00:26 | 34.85238 | -107.55731 | 38808 ft | 554 kts | 75° |
| 2026-05-06 00:26 | 34.87569 | -107.46803 | 38812 ft | 554 kts | 76° |
| 2026-05-06 00:27 | 34.89904 | -107.37857 | 38789 ft | 554 kts | 76° |
| 2026-05-06 00:27 | 34.92238 | -107.28897 | 38778 ft | 555 kts | 76° |
| 2026-05-06 00:28 | 34.94560 | -107.19923 | 38778 ft | 556 kts | 76° |
| 2026-05-06 00:28 | 34.96892 | -107.10876 | 38783 ft | 557 kts | 76° |
| 2026-05-06 00:29 | 34.99207 | -107.01865 | 38792 ft | 558 kts | 76° |
| 2026-05-06 00:29 | 35.01527 | -106.92822 | 38777 ft | 559 kts | 76° |
| 2026-05-06 00:30 | 35.03845 | -106.83757 | 38949 ft | 561 kts | 76° |
| 2026-05-06 00:30 | 35.06880 | -106.74947 | 38969 ft | 564 kts | 67° |
| 2026-05-06 00:31 | 35.10146 | -106.66236 | 38955 ft | 563 kts | 67° |
| 2026-05-06 00:31 | 35.13395 | -106.57526 | 38946 ft | 564 kts | 67° |
| 2026-05-06 00:32 | 35.16636 | -106.48800 | 38809 ft | 564 kts | 68° |
| 2026-05-06 00:32 | 35.19876 | -106.40046 | 38814 ft | 565 kts | 68° |
| 2026-05-06 00:33 | 35.23102 | -106.31296 | 38783 ft | 565 kts | 67° |
| 2026-05-06 00:33 | 35.26362 | -106.22467 | 38772 ft | 566 kts | 67° |
| 2026-05-06 00:34 | 35.29598 | -106.13674 | 38803 ft | 567 kts | 68° |
| 2026-05-06 00:34 | 35.32827 | -106.04856 | 38826 ft | 568 kts | 68° |
| 2026-05-06 00:35 | 35.36061 | -105.96023 | 38829 ft | 569 kts | 67° |
| 2026-05-06 00:35 | 35.39295 | -105.87160 | 38762 ft | 571 kts | 67° |
| 2026-05-06 00:36 | 35.42534 | -105.78258 | 38764 ft | 572 kts | 67° |
| 2026-05-06 00:36 | 35.45767 | -105.69325 | 38776 ft | 574 kts | 68° |
| 2026-05-06 00:37 | 35.48990 | -105.60387 | 38759 ft | 572 kts | 67° |
| 2026-05-06 00:37 | 35.52201 | -105.51475 | 38790 ft | 570 kts | 68° |
| 2026-05-06 00:38 | 35.55400 | -105.42563 | 38832 ft | 570 kts | 68° |
| 2026-05-06 00:38 | 35.58598 | -105.33649 | 38888 ft | 571 kts | 68° |
| 2026-05-06 00:39 | 35.61808 | -105.24669 | 38942 ft | 571 kts | 68° |
| 2026-05-06 00:39 | 35.65008 | -105.15713 | 38929 ft | 573 kts | 65° |
| 2026-05-06 00:40 | 35.69139 | -105.07352 | 38930 ft | 573 kts | 54° |
| 2026-05-06 00:40 | 35.73598 | -104.99216 | 38722 ft | 574 kts | 54° |
| 2026-05-06 00:41 | 35.78032 | -104.91046 | 38712 ft | 574 kts | 54° |
| 2026-05-06 00:41 | 35.82465 | -104.82857 | 38744 ft | 575 kts | 54° |
| 2026-05-06 00:42 | 35.86909 | -104.74663 | 38725 ft | 575 kts | 54° |
| 2026-05-06 00:42 | 35.91346 | -104.66462 | 38730 ft | 574 kts | 54° |
| 2026-05-06 00:43 | 35.95763 | -104.58259 | 38750 ft | 574 kts | 54° |
| 2026-05-06 00:43 | 36.00179 | -104.50039 | 38755 ft | 574 kts | 54° |
| 2026-05-06 00:44 | 36.04619 | -104.41759 | 38767 ft | 574 kts | 54° |
| 2026-05-06 00:44 | 36.09018 | -104.33534 | 38777 ft | 574 kts | 55° |
| 2026-05-06 00:45 | 36.13409 | -104.25293 | 38772 ft | 573 kts | 55° |
| 2026-05-06 00:45 | 36.17775 | -104.17090 | 38750 ft | 568 kts | 55° |
| 2026-05-06 00:46 | 36.22118 | -104.08923 | 38763 ft | 569 kts | 55° |
| 2026-05-06 00:46 | 36.26467 | -104.00721 | 38785 ft | 570 kts | 55° |
| 2026-05-06 00:47 | 36.30815 | -103.92488 | 38812 ft | 571 kts | 55° |
| 2026-05-06 00:47 | 36.35154 | -103.84230 | 38826 ft | 572 kts | 55° |
| 2026-05-06 00:48 | 36.38796 | -103.77304 | 38840 ft | 573 kts | 55° |
| 2026-05-06 00:48 | 36.43156 | -103.69018 | 38844 ft | 573 kts | 55° |
| 2026-05-06 00:49 | 36.47507 | -103.60718 | 38874 ft | 571 kts | 55° |
| 2026-05-06 00:49 | 36.51821 | -103.52453 | 38895 ft | 570 kts | 56° |
| 2026-05-06 00:50 | 36.56133 | -103.44174 | 38902 ft | 571 kts | 55° |
| 2026-05-06 00:50 | 36.60451 | -103.35878 | 38874 ft | 572 kts | 55° |
| 2026-05-06 00:51 | 36.64771 | -103.27543 | 38890 ft | 573 kts | 55° |
| 2026-05-06 00:51 | 36.69085 | -103.19192 | 38908 ft | 574 kts | 56° |
| 2026-05-06 00:52 | 36.73013 | -103.10548 | 38894 ft | 574 kts | 68° |
| 2026-05-06 00:52 | 36.75218 | -103.01045 | 38886 ft | 569 kts | 84° |
| 2026-05-06 00:53 | 36.76684 | -102.91335 | 38893 ft | 570 kts | 84° |
| 2026-05-06 00:53 | 36.78166 | -102.81617 | 38931 ft | 571 kts | 83° |
| 2026-05-06 00:54 | 36.79642 | -102.71892 | 38917 ft | 570 kts | 83° |
| 2026-05-06 00:54 | 36.81105 | -102.62105 | 38913 ft | 570 kts | 83° |
| 2026-05-06 00:55 | 36.82542 | -102.52374 | 38915 ft | 570 kts | 83° |
| 2026-05-06 00:55 | 36.83969 | -102.42633 | 38915 ft | 571 kts | 83° |
| 2026-05-06 00:56 | 36.85398 | -102.32891 | 38904 ft | 571 kts | 83° |
| 2026-05-06 00:56 | 36.86834 | -102.23122 | 38912 ft | 572 kts | 83° |
| 2026-05-06 00:57 | 36.88255 | -102.13338 | 38975 ft | 573 kts | 84° |
| 2026-05-06 00:57 | 36.89661 | -102.03548 | 38987 ft | 573 kts | 84° |
| 2026-05-06 00:58 | 36.91065 | -101.93739 | 39007 ft | 573 kts | 84° |
| 2026-05-06 00:58 | 36.92474 | -101.83868 | 39013 ft | 573 kts | 84° |
| 2026-05-06 00:59 | 36.93863 | -101.74059 | 39002 ft | 573 kts | 84° |
| 2026-05-06 00:59 | 36.95240 | -101.64243 | 38978 ft | 573 kts | 84° |
| 2026-05-06 01:00 | 36.96612 | -101.54424 | 38966 ft | 574 kts | 84° |
| 2026-05-06 01:00 | 36.97987 | -101.44509 | 38979 ft | 575 kts | 84° |
| 2026-05-06 01:01 | 36.99356 | -101.34655 | 38985 ft | 575 kts | 84° |
| 2026-05-06 01:01 | 37.00711 | -101.24794 | 38975 ft | 576 kts | 84° |
| 2026-05-06 01:02 | 37.02055 | -101.14914 | 38990 ft | 576 kts | 84° |
| 2026-05-06 01:02 | 37.03388 | -101.05029 | 39003 ft | 576 kts | 84° |
| 2026-05-06 01:03 | 37.04879 | -100.95162 | 39006 ft | 579 kts | 76° |
| 2026-05-06 01:03 | 37.07049 | -100.85450 | 39008 ft | 579 kts | 76° |
| 2026-05-06 01:04 | 37.09211 | -100.75731 | 39003 ft | 579 kts | 76° |
| 2026-05-06 01:04 | 37.11356 | -100.66001 | 38999 ft | 580 kts | 76° |
| 2026-05-06 01:05 | 37.13495 | -100.56261 | 38953 ft | 579 kts | 76° |
| 2026-05-06 01:05 | 37.15629 | -100.46528 | 38967 ft | 579 kts | 76° |
| 2026-05-06 01:06 | 37.17754 | -100.36781 | 38982 ft | 579 kts | 77° |
| 2026-05-06 01:06 | 37.19880 | -100.26965 | 38982 ft | 579 kts | 77° |
| 2026-05-06 01:07 | 37.21977 | -100.17223 | 38961 ft | 579 kts | 77° |
| 2026-05-06 01:07 | 37.24078 | -100.07468 | 38963 ft | 579 kts | 77° |
| 2026-05-06 01:08 | 37.26167 | -99.97702 | 38973 ft | 579 kts | 77° |
| 2026-05-06 01:08 | 37.28247 | -99.87939 | 38972 ft | 579 kts | 77° |
| 2026-05-06 01:09 | 37.30323 | -99.78121 | 38979 ft | 579 kts | 77° |
| 2026-05-06 01:09 | 37.32383 | -99.68317 | 38998 ft | 578 kts | 77° |
| 2026-05-06 01:10 | 37.34438 | -99.58562 | 39001 ft | 578 kts | 77° |
| 2026-05-06 01:10 | 37.36508 | -99.48725 | 38996 ft | 578 kts | 77° |
| 2026-05-06 01:11 | 37.38555 | -99.38955 | 38988 ft | 578 kts | 77° |
| 2026-05-06 01:11 | 37.40577 | -99.29174 | 38989 ft | 578 kts | 77° |
| 2026-05-06 01:12 | 37.42586 | -99.19392 | 38985 ft | 577 kts | 77° |
| 2026-05-06 01:12 | 37.44604 | -99.09548 | 38988 ft | 578 kts | 77° |
| 2026-05-06 01:13 | 37.46615 | -98.99760 | 38998 ft | 578 kts | 77° |
| 2026-05-06 01:13 | 37.48620 | -98.89949 | 39011 ft | 578 kts | 77° |
| 2026-05-06 01:14 | 37.51591 | -98.75247 | 39030 ft | 578 kts | 77° |
| 2026-05-06 01:14 | 37.53248 | -98.67016 | 39015 ft | 578 kts | 77° |
| 2026-05-06 01:15 | 37.55223 | -98.57178 | 39019 ft | 579 kts | 77° |
| 2026-05-06 01:15 | 37.57184 | -98.47344 | 39019 ft | 579 kts | 78° |
| 2026-05-06 01:16 | 37.59143 | -98.37491 | 38993 ft | 579 kts | 77° |
| 2026-05-06 01:16 | 37.61101 | -98.27633 | 38992 ft | 579 kts | 77° |
| 2026-05-06 01:17 | 37.63039 | -98.17810 | 38987 ft | 580 kts | 78° |
| 2026-05-06 01:17 | 37.64959 | -98.07986 | 38986 ft | 580 kts | 78° |
| 2026-05-06 01:18 | 37.66873 | -97.98122 | 38997 ft | 580 kts | 78° |
| 2026-05-06 01:18 | 37.68780 | -97.88224 | 38975 ft | 581 kts | 78° |
| 2026-05-06 01:19 | 37.70707 | -97.78236 | 39018 ft | 581 kts | 77° |
| 2026-05-06 01:19 | 37.72623 | -97.68314 | 39006 ft | 581 kts | 78° |
| 2026-05-06 01:20 | 37.74536 | -97.58329 | 39013 ft | 581 kts | 77° |
| 2026-05-06 01:20 | 37.76395 | -97.48404 | 39011 ft | 581 kts | 78° |
| 2026-05-06 01:21 | 37.78210 | -97.38374 | 39009 ft | 581 kts | 78° |
| 2026-05-06 01:21 | 37.80021 | -97.28346 | 39010 ft | 581 kts | 78° |
| 2026-05-06 01:22 | 37.81832 | -97.18386 | 39010 ft | 581 kts | 78° |
| 2026-05-06 01:22 | 37.83653 | -97.08370 | 39007 ft | 580 kts | 78° |
| 2026-05-06 01:23 | 37.85436 | -96.98409 | 39006 ft | 580 kts | 79° |
| 2026-05-06 01:23 | 37.87204 | -96.88442 | 39006 ft | 581 kts | 79° |
| 2026-05-06 01:24 | 37.88967 | -96.78529 | 38992 ft | 581 kts | 78° |
| 2026-05-06 01:24 | 37.90761 | -96.68420 | 38995 ft | 581 kts | 78° |
| 2026-05-06 01:25 | 37.92536 | -96.58359 | 39002 ft | 582 kts | 78° |
| 2026-05-06 01:25 | 37.94292 | -96.48289 | 39009 ft | 582 kts | 79° |
| 2026-05-06 01:26 | 37.96041 | -96.38212 | 39012 ft | 582 kts | 78° |
| 2026-05-06 01:26 | 37.97771 | -96.28193 | 39011 ft | 582 kts | 78° |
| 2026-05-06 01:27 | 37.99536 | -96.17902 | 39012 ft | 582 kts | 79° |
| 2026-05-06 01:27 | 38.01246 | -96.07875 | 38984 ft | 582 kts | 78° |
| 2026-05-06 01:28 | 38.02959 | -95.97850 | 38992 ft | 582 kts | 78° |
| 2026-05-06 01:28 | 38.04667 | -95.87808 | 39043 ft | 582 kts | 79° |
| 2026-05-06 01:29 | 38.06347 | -95.77816 | 38976 ft | 577 kts | 79° |
| 2026-05-06 01:29 | 38.08010 | -95.67849 | 38959 ft | 578 kts | 78° |
| 2026-05-06 01:30 | 38.09682 | -95.57789 | 38980 ft | 579 kts | 79° |
| 2026-05-06 01:30 | 38.11335 | -95.47785 | 38986 ft | 579 kts | 79° |
| 2026-05-06 01:31 | 38.12990 | -95.37774 | 38994 ft | 579 kts | 79° |
| 2026-05-06 01:31 | 38.14358 | -95.29440 | 38991 ft | 579 kts | 78° |
| 2026-05-06 01:32 | 38.15986 | -95.19415 | 38999 ft | 580 kts | 78° |
| 2026-05-06 01:32 | 38.17607 | -95.09390 | 38999 ft | 580 kts | 79° |
| 2026-05-06 01:33 | 38.19233 | -94.99290 | 39000 ft | 580 kts | 79° |
| 2026-05-06 01:33 | 38.20849 | -94.89176 | 38996 ft | 580 kts | 78° |
| 2026-05-06 01:34 | 38.22458 | -94.79053 | 39004 ft | 580 kts | 78° |
| 2026-05-06 01:34 | 38.24061 | -94.68933 | 39009 ft | 580 kts | 78° |
| 2026-05-06 01:35 | 38.25641 | -94.58885 | 39009 ft | 580 kts | 78° |
| 2026-05-06 01:35 | 38.26845 | -94.49561 | 38322 ft | 568 kts | 90° |
| 2026-05-06 01:36 | 38.26058 | -94.44834 | 32744 ft | 612 kts | 123° |
| 2026-05-06 01:36 | 38.24495 | -94.40469 | 36175 ft | 483 kts | 123° |
| 2026-05-06 01:36 | 38.23460 | -94.36501 | 38254 ft | 470 kts | 107° |
| 2026-05-06 01:36 | 38.23300 | -94.32346 | 38808 ft | 473 kts | 86° |
| 2026-05-06 01:37 | 38.23897 | -94.23854 | 38630 ft | 489 kts | 89° |
| 2026-05-06 01:37 | 38.24151 | -94.19578 | 38908 ft | 487 kts | 83° |
| 2026-05-06 01:37 | 38.24918 | -94.15375 | 38873 ft | 489 kts | 65° |
| 2026-05-06 01:38 | 38.26093 | -94.11342 | 39224 ft | 480 kts | 66° |
| 2026-05-06 01:38 | 38.27190 | -94.07378 | 39574 ft | 475 kts | 67° |
| 2026-05-06 01:38 | 38.28340 | -94.03264 | 38517 ft | 512 kts | 59° |
| 2026-05-06 01:38 | 38.29985 | -93.99176 | 38134 ft | 525 kts | 56° |
| 2026-05-06 01:39 | 38.33488 | -93.90930 | 39012 ft | 514 kts | 54° |
| 2026-05-06 01:39 | 38.36957 | -93.82817 | 39002 ft | 531 kts | 55° |
| 2026-05-06 01:40 | 38.38485 | -93.78437 | 39002 ft | 547 kts | 70° |
| 2026-05-06 01:40 | 38.39380 | -93.73679 | 38989 ft | 556 kts | 77° |
| 2026-05-06 01:40 | 38.40932 | -93.63856 | 38984 ft | 572 kts | 77° |
| 2026-05-06 01:41 | 38.42486 | -93.53858 | 38982 ft | 578 kts | 77° |
| 2026-05-06 01:41 | 38.44083 | -93.43644 | 38981 ft | 587 kts | 77° |
| 2026-05-06 01:42 | 38.45679 | -93.33395 | 38980 ft | 589 kts | 78° |
| 2026-05-06 01:42 | 38.47254 | -93.23154 | 38997 ft | 589 kts | 78° |
| 2026-05-06 01:43 | 38.48830 | -93.12888 | 38994 ft | 589 kts | 78° |
| 2026-05-06 01:43 | 38.50402 | -93.02611 | 38962 ft | 590 kts | 78° |
| 2026-05-06 01:44 | 38.51962 | -92.92326 | 38964 ft | 591 kts | 78° |
| 2026-05-06 01:44 | 38.53507 | -92.82015 | 38968 ft | 592 kts | 78° |
| 2026-05-06 01:45 | 38.55052 | -92.71626 | 38967 ft | 592 kts | 78° |
| 2026-05-06 01:45 | 38.56596 | -92.61285 | 38980 ft | 592 kts | 78° |
| 2026-05-06 01:46 | 38.58132 | -92.50953 | 38988 ft | 592 kts | 78° |
| 2026-05-06 01:46 | 38.59639 | -92.40620 | 38996 ft | 591 kts | 78° |
| 2026-05-06 01:47 | 38.61149 | -92.30194 | 39004 ft | 591 kts | 78° |
| 2026-05-06 01:47 | 38.62657 | -92.19866 | 38987 ft | 591 kts | 78° |
| 2026-05-06 01:48 | 38.64148 | -92.09545 | 39017 ft | 590 kts | 78° |
| 2026-05-06 01:48 | 38.65617 | -91.99284 | 38956 ft | 585 kts | 78° |
| 2026-05-06 01:49 | 38.67082 | -91.89043 | 38920 ft | 585 kts | 78° |
| 2026-05-06 01:49 | 38.68479 | -91.79337 | 38931 ft | 586 kts | 78° |
| 2026-05-06 01:50 | 38.69944 | -91.68996 | 38949 ft | 587 kts | 78° |
| 2026-05-06 01:50 | 38.71370 | -91.58690 | 38960 ft | 588 kts | 78° |
| 2026-05-06 01:51 | 38.72787 | -91.48319 | 38952 ft | 587 kts | 79° |
| 2026-05-06 01:51 | 38.74193 | -91.38010 | 38963 ft | 587 kts | 79° |
| 2026-05-06 01:52 | 38.75594 | -91.27720 | 38979 ft | 586 kts | 79° |
| 2026-05-06 01:52 | 38.76985 | -91.17429 | 38980 ft | 586 kts | 79° |
| 2026-05-06 01:53 | 38.78380 | -91.07076 | 38973 ft | 585 kts | 79° |
| 2026-05-06 01:53 | 38.79750 | -90.96798 | 38983 ft | 584 kts | 79° |
| 2026-05-06 01:54 | 38.81107 | -90.86531 | 38973 ft | 584 kts | 79° |
| 2026-05-06 01:54 | 38.82447 | -90.76256 | 38955 ft | 584 kts | 79° |
| 2026-05-06 01:55 | 38.83783 | -90.65992 | 38978 ft | 583 kts | 79° |
| 2026-05-06 01:55 | 38.85112 | -90.55738 | 38980 ft | 583 kts | 79° |
| 2026-05-06 01:56 | 38.86737 | -90.45573 | 38979 ft | 579 kts | 68° |
| 2026-05-06 01:56 | 38.89229 | -90.35695 | 39011 ft | 578 kts | 68° |
| 2026-05-06 01:57 | 38.91277 | -90.27550 | 38972 ft | 575 kts | 68° |
| 2026-05-06 01:57 | 38.93725 | -90.17787 | 38991 ft | 575 kts | 68° |
| 2026-05-06 01:58 | 38.96162 | -90.08003 | 38995 ft | 575 kts | 68° |
| 2026-05-06 01:58 | 38.98594 | -89.98210 | 38955 ft | 575 kts | 68° |
| 2026-05-06 01:59 | 39.01028 | -89.88379 | 38982 ft | 573 kts | 68° |
| 2026-05-06 01:59 | 39.03431 | -89.78614 | 38977 ft | 572 kts | 68° |
| 2026-05-06 02:00 | 39.05819 | -89.68856 | 38967 ft | 571 kts | 68° |